Keszthely, Hungary
Current Conditions -  °F | °C
As of 6:45 PM on Wednesday 26 Nov 2014 (Local Time) from LHSM Reporting Station
Broken Clouds Broken Clouds  
Wind Chill: 34°   Ceiling: 4000
Heat Index: 37°   Visibility: 6mi
Dew Point: 32°   Wind: 5mph
Humidity: 81%   Direction: 100°E
Pressure: 30.21"   Gusts: NA
Location:  46.77°N, 17.24°E
Report Text: LHSM 261645Z 10004KT 9999 BKN040 03/M00 Q1023 NOSIG
Loading
Personal Weather Stations






























Interactive Weather Map New forecast layout! Learn more

10-Day Weather Forecast

Advertisements
Track Severe Weather on mobile